createdAt,value
2023-07-09T00:00:38.986Z,9.23
2023-07-09T00:03:13.656Z,9.73
2023-07-09T00:05:49.269Z,9.00
2023-07-09T00:08:28.976Z,8.70
2023-07-09T00:11:04.061Z,9.52
2023-07-09T00:13:37.380Z,8.50
2023-07-09T00:16:18.058Z,9.38
2023-07-09T00:18:51.464Z,11.77
2023-07-09T00:21:25.529Z,9.25
2023-07-09T00:23:58.838Z,13.05
2023-07-09T00:26:34.112Z,10.23
2023-07-09T00:29:07.452Z,8.63
2023-07-09T00:31:42.381Z,8.25
2023-07-09T00:34:23.042Z,7.90
2023-07-09T00:36:56.563Z,8.55
2023-07-09T00:39:29.996Z,9.80
2023-07-09T00:42:04.831Z,10.40
2023-07-09T00:44:38.611Z,11.00
2023-07-09T00:50:11.324Z,11.52
2023-07-09T00:52:51.581Z,9.10
2023-07-09T00:55:28.412Z,7.95
2023-07-09T00:58:07.996Z,9.82
2023-07-09T01:00:48.285Z,6.88
2023-07-09T01:03:28.473Z,8.38
2023-07-09T01:06:02.268Z,8.25
2023-07-09T01:08:38.466Z,9.48
2023-07-09T01:11:22.554Z,10.40
2023-07-09T01:14:02.197Z,7.70
2023-07-09T01:16:39.483Z,7.07
2023-07-09T01:19:14.543Z,7.72
2023-07-09T01:21:49.253Z,8.57
2023-07-09T01:24:50.985Z,10.52
2023-07-09T01:27:27.721Z,8.18
2023-07-09T01:30:02.442Z,9.38
2023-07-09T01:32:35.757Z,7.70
2023-07-09T01:35:09.773Z,6.85
2023-07-09T01:37:45.353Z,7.63
2023-07-09T01:40:30.011Z,10.85
2023-07-09T01:43:07.498Z,10.68
2023-07-09T01:45:40.932Z,8.25
2023-07-09T01:48:16.991Z,8.02
2023-07-09T01:50:51.581Z,7.45
2023-07-09T01:53:28.426Z,8.57
2023-07-09T01:56:02.190Z,11.40
2023-07-09T01:58:36.274Z,8.57
2023-07-09T02:01:10.054Z,8.73
2023-07-09T02:06:21.091Z,7.88
2023-07-09T02:08:55.834Z,7.80
2023-07-09T02:11:29.299Z,11.20
2023-07-09T02:14:02.612Z,9.45
2023-07-09T02:16:35.952Z,7.35
2023-07-09T02:19:09.446Z,7.22
2023-07-09T02:21:42.740Z,13.48
2023-07-09T02:24:17.363Z,7.80
2023-07-09T02:26:50.622Z,8.00
2023-07-09T02:29:24.365Z,8.70
2023-07-09T02:34:32.922Z,8.88
2023-07-09T02:37:06.258Z,8.77
2023-07-09T02:39:40.972Z,7.90
2023-07-09T02:42:16.388Z,9.00
2023-07-09T02:44:50.051Z,8.75
2023-07-09T02:47:24.620Z,8.45
2023-07-09T02:49:59.349Z,8.25
2023-07-09T02:52:32.858Z,7.38
2023-07-09T02:55:08.296Z,8.73
2023-07-09T02:57:41.559Z,9.07
2023-07-09T03:00:15.865Z,6.57
2023-07-09T03:02:49.234Z,13.85
2023-07-09T03:05:22.624Z,7.60
2023-07-09T03:07:55.901Z,7.20
2023-07-09T03:10:31.983Z,8.57
2023-07-09T03:13:05.433Z,7.75
2023-07-09T03:15:38.980Z,6.03
2023-07-09T03:18:12.253Z,9.02
2023-07-09T03:20:45.504Z,6.90
2023-07-09T03:23:19.139Z,8.60
2023-07-09T03:25:54.044Z,8.25
2023-07-09T03:28:27.756Z,7.25
2023-07-09T03:31:01.224Z,7.25
2023-07-09T03:33:34.463Z,7.70
2023-07-09T03:36:08.151Z,10.98
2023-07-09T03:38:41.527Z,6.32
2023-07-09T03:41:16.577Z,9.77
2023-07-09T03:43:51.249Z,7.40
2023-07-09T03:46:24.550Z,9.63
2023-07-09T03:49:00.200Z,8.75
2023-07-09T03:51:33.524Z,7.03
2023-07-09T03:54:08.682Z,7.28
2023-07-09T03:56:43.331Z,8.70
2023-07-09T03:59:16.643Z,7.63
2023-07-09T04:01:50.089Z,6.90
2023-07-09T04:04:23.529Z,9.77
2023-07-09T04:06:57.473Z,9.15
2023-07-09T04:09:30.846Z,7.18
2023-07-09T04:12:06.713Z,8.32
2023-07-09T04:14:41.948Z,7.00
2023-07-09T04:17:15.273Z,8.48
2023-07-09T04:19:48.637Z,6.32
2023-07-09T04:22:22.285Z,9.20
2023-07-09T04:24:55.567Z,6.72
2023-07-09T04:27:30.193Z,12.98
2023-07-09T04:30:03.698Z,8.70
2023-07-09T04:35:12.292Z,8.43
2023-07-09T04:37:45.695Z,7.03
2023-07-09T04:40:20.868Z,7.60
2023-07-09T04:42:55.586Z,7.40
2023-07-09T04:45:29.003Z,6.80
2023-07-09T04:48:02.308Z,8.50
2023-07-09T04:50:35.824Z,11.98
2023-07-09T04:53:09.127Z,8.20
2023-07-09T04:55:42.387Z,7.30
2023-07-09T04:58:17.134Z,6.70
2023-07-09T05:00:51.573Z,5.63
2023-07-09T05:03:24.949Z,7.85
2023-07-09T05:05:58.309Z,7.60
2023-07-09T05:08:31.803Z,6.63
2023-07-09T05:11:05.030Z,8.05
2023-07-09T05:13:39.650Z,6.35
2023-07-09T05:16:13.062Z,6.05
2023-07-09T05:18:47.497Z,6.15
2023-07-09T05:21:21.325Z,7.45
2023-07-09T05:26:27.757Z,5.53
2023-07-09T05:29:02.411Z,5.55
2023-07-09T05:31:37.324Z,5.65
2023-07-09T05:34:10.768Z,5.57
2023-07-09T05:36:44.081Z,7.95
2023-07-09T05:39:17.529Z,11.90
2023-07-09T05:41:50.864Z,9.40
2023-07-09T05:44:25.487Z,6.50
2023-07-09T05:46:58.899Z,7.28
2023-07-09T05:49:32.221Z,7.43
2023-07-09T05:52:06.257Z,6.07
2023-07-09T05:54:39.629Z,7.43
2023-07-09T05:57:13.036Z,6.65
2023-07-09T05:59:47.746Z,6.82
2023-07-09T06:02:22.984Z,7.68
2023-07-09T06:04:57.309Z,6.63
2023-07-09T06:07:30.723Z,6.55
2023-07-09T06:10:04.021Z,5.68
2023-07-09T06:12:37.392Z,5.65
2023-07-09T06:15:13.262Z,6.85
2023-07-09T06:17:46.740Z,6.68
2023-07-09T06:20:20.118Z,5.35
2023-07-09T06:22:53.421Z,7.75
2023-07-09T06:25:26.723Z,5.90
2023-07-09T06:28:00.352Z,5.82
2023-07-09T06:30:35.108Z,5.65
2023-07-09T06:33:08.352Z,5.20
2023-07-09T06:35:47.713Z,5.13
2023-07-09T06:38:22.192Z,5.20
2023-07-09T06:40:55.885Z,5.85
2023-07-09T06:43:29.165Z,5.25
2023-07-09T06:46:04.310Z,6.72
2023-07-09T06:48:37.922Z,9.27
2023-07-09T06:51:11.406Z,6.47
2023-07-09T06:53:49.100Z,5.18
2023-07-09T06:56:22.416Z,6.50
2023-07-09T06:58:55.672Z,7.20
2023-07-09T07:01:30.504Z,4.95
2023-07-09T07:04:03.855Z,4.65
2023-07-09T07:06:37.284Z,4.60
2023-07-09T07:09:10.826Z,5.65
2023-07-09T07:11:44.316Z,4.70
2023-07-09T07:14:17.958Z,6.07
2023-07-09T07:19:27.164Z,5.22
2023-07-09T07:22:00.532Z,4.18
2023-07-09T07:24:33.803Z,5.07
2023-07-09T07:27:07.557Z,4.28
2023-07-09T07:32:15.239Z,5.28
2023-07-09T07:34:48.937Z,5.85
2023-07-09T07:37:22.664Z,5.03
2023-07-09T07:42:29.410Z,3.80
2023-07-09T07:45:02.795Z,4.20
2023-07-09T07:47:38.474Z,5.43
2023-07-09T07:50:12.189Z,5.47
2023-07-09T07:52:45.761Z,5.18
2023-07-09T07:55:20.581Z,3.95
2023-07-09T07:57:54.134Z,4.50
2023-07-09T08:00:27.685Z,4.45
2023-07-09T08:03:02.396Z,4.03
2023-07-09T08:05:35.775Z,4.05
2023-07-09T08:08:09.088Z,5.13
2023-07-09T08:10:42.436Z,6.13
2023-07-09T08:13:15.821Z,4.30
2023-07-09T08:15:49.303Z,4.50
2023-07-09T08:18:25.083Z,4.18
2023-07-09T08:20:58.523Z,5.03
2023-07-09T08:23:32.060Z,3.92
2023-07-09T08:26:06.257Z,5.13
2023-07-09T08:28:40.301Z,3.97
2023-07-09T08:31:13.715Z,3.92
2023-07-09T08:33:48.392Z,4.80
2023-07-09T08:36:22.016Z,3.83
2023-07-09T08:38:55.227Z,4.85
2023-07-09T08:41:42.102Z,4.15
2023-07-09T08:44:44.874Z,3.58
2023-07-09T08:47:25.705Z,3.80
2023-07-09T08:50:03.353Z,4.68
2023-07-09T08:52:39.525Z,3.65
2023-07-09T08:55:17.062Z,3.90
2023-07-09T08:57:52.960Z,4.07
2023-07-09T09:00:44.088Z,3.88
2023-07-09T09:03:28.875Z,5.65
2023-07-09T09:06:03.885Z,4.05
2023-07-09T09:08:42.439Z,5.50
2023-07-09T09:11:22.867Z,4.25
2023-07-09T09:13:58.558Z,5.70
2023-07-09T09:16:35.750Z,3.88
2023-07-09T09:19:17.909Z,4.25
2023-07-09T09:21:58.757Z,3.92
2023-07-09T09:24:42.255Z,3.97
2023-07-09T09:27:15.601Z,7.75
2023-07-09T09:29:48.854Z,3.55
2023-07-09T09:32:27.303Z,4.20
2023-07-09T09:35:00.699Z,4.32
2023-07-09T09:37:35.318Z,4.45
2023-07-09T09:40:17.661Z,3.60
2023-07-09T09:42:52.036Z,10.27
2023-07-09T09:45:29.535Z,6.63
2023-07-09T09:48:11.675Z,3.63
2023-07-09T09:50:47.179Z,4.90
2023-07-09T09:53:25.165Z,3.83
2023-07-09T09:56:01.069Z,4.65
2023-07-09T09:58:34.495Z,3.30
2023-07-09T10:01:08.417Z,4.78
2023-07-09T10:03:42.229Z,4.85
2023-07-09T10:06:20.792Z,6.15
2023-07-09T10:09:00.555Z,3.53
2023-07-09T10:11:46.626Z,3.35
2023-07-09T10:14:36.624Z,7.32
2023-07-09T10:17:20.148Z,2.72
2023-07-09T10:19:59.909Z,3.53
2023-07-09T10:22:43.425Z,3.22
2023-07-09T10:25:31.674Z,3.05
2023-07-09T10:28:49.741Z,6.38
2023-07-09T10:31:32.910Z,3.65
2023-07-09T10:34:16.392Z,3.30
2023-07-09T10:37:07.238Z,3.05
2023-07-09T10:39:45.001Z,3.78
2023-07-09T10:42:25.614Z,3.72
2023-07-09T10:45:04.416Z,3.72
2023-07-09T10:47:42.304Z,4.93
2023-07-09T10:50:25.986Z,5.03
2023-07-09T10:53:04.211Z,4.55
2023-07-09T10:55:46.482Z,9.60
2023-07-09T10:58:31.568Z,5.03
2023-07-09T11:01:06.232Z,4.32
2023-07-09T11:03:45.098Z,4.90
2023-07-09T11:06:23.290Z,4.88
2023-07-09T11:08:59.372Z,7.28
2023-07-09T11:11:39.542Z,10.93
2023-07-09T11:14:28.478Z,9.23
2023-07-09T11:17:02.660Z,4.47
2023-07-09T11:19:44.071Z,7.10
2023-07-09T11:22:19.539Z,7.78
2023-07-09T11:24:54.826Z,6.80
2023-07-09T11:27:29.598Z,7.88
2023-07-09T11:30:20.263Z,3.70
2023-07-09T11:33:10.336Z,6.07
2023-07-09T11:35:53.476Z,5.20
2023-07-09T11:38:27.264Z,6.13
2023-07-09T11:43:36.386Z,4.97
2023-07-09T11:46:19.189Z,6.90
2023-07-09T11:48:54.335Z,6.13
2023-07-09T11:51:36.587Z,3.85
2023-07-09T11:54:13.828Z,8.00
2023-07-09T11:56:56.134Z,5.40
2023-07-09T11:59:29.554Z,3.58
2023-07-09T12:02:04.650Z,5.85
2023-07-09T12:04:38.095Z,5.25
2023-07-09T12:07:16.152Z,2.47
2023-07-09T12:09:52.565Z,4.32
2023-07-09T12:12:28.874Z,4.68
2023-07-09T12:15:06.916Z,6.32
2023-07-09T12:17:41.598Z,5.90
2023-07-09T12:20:16.069Z,3.28
2023-07-09T12:22:49.526Z,6.93
2023-07-09T12:25:27.692Z,5.10
2023-07-09T12:28:01.461Z,4.25
2023-07-09T12:30:35.720Z,3.67
2023-07-09T12:33:10.958Z,4.43
2023-07-09T12:35:44.355Z,5.13
2023-07-09T12:38:22.264Z,3.92
2023-07-09T12:40:57.037Z,3.75
2023-07-09T12:43:33.985Z,4.15
2023-07-09T12:46:07.850Z,5.65
2023-07-09T12:53:50.947Z,3.95
2023-07-09T12:56:24.413Z,5.82
2023-07-09T12:58:59.985Z,9.45
2023-07-09T13:01:37.324Z,4.70
2023-07-09T13:04:14.876Z,4.70
2023-07-09T13:06:48.872Z,3.45
2023-07-09T13:09:23.735Z,7.53
2023-07-09T13:11:57.790Z,2.85
2023-07-09T13:14:33.572Z,6.47
2023-07-09T13:17:08.912Z,5.15
2023-07-09T13:19:43.642Z,6.45
2023-07-09T13:22:18.819Z,4.97
2023-07-09T13:24:52.384Z,3.08
2023-07-09T13:30:00.878Z,5.03
2023-07-09T13:32:34.162Z,1.90
2023-07-09T13:35:16.588Z,5.10
2023-07-09T13:37:50.062Z,3.60
2023-07-09T13:40:23.907Z,4.10
2023-07-09T13:42:57.270Z,7.45
2023-07-09T13:45:30.533Z,6.32
2023-07-09T13:48:03.843Z,4.70
2023-07-09T13:50:38.541Z,2.30
2023-07-09T13:53:16.926Z,4.93
2023-07-09T13:55:51.327Z,5.30
2023-07-09T13:58:26.911Z,2.83
2023-07-09T14:01:08.498Z,4.05
2023-07-09T14:03:43.320Z,2.97
2023-07-09T14:06:20.101Z,2.05
2023-07-09T14:08:53.382Z,3.05
2023-07-09T14:11:28.490Z,4.68
2023-07-09T14:14:01.925Z,3.08
2023-07-09T14:16:35.178Z,7.03
2023-07-09T14:19:14.939Z,5.97
2023-07-09T14:21:50.649Z,2.47
2023-07-09T14:24:26.162Z,3.17
2023-07-09T14:27:00.369Z,9.68
2023-07-09T14:29:33.950Z,4.72
2023-07-09T14:32:24.807Z,5.63
2023-07-09T14:34:58.521Z,2.35
2023-07-09T14:37:33.362Z,2.90
2023-07-09T14:40:07.503Z,6.93
2023-07-09T14:42:41.575Z,3.40
2023-07-09T14:45:20.708Z,5.15
2023-07-09T14:47:55.161Z,3.03
2023-07-09T14:50:28.905Z,1.90
2023-07-09T14:55:37.030Z,5.10
2023-07-09T14:58:16.565Z,5.10
2023-07-09T15:00:50.605Z,4.32
2023-07-09T15:03:25.794Z,4.45
2023-07-09T15:05:59.173Z,2.80
2023-07-09T15:08:34.320Z,2.05
2023-07-09T15:11:08.357Z,3.60
2023-07-09T15:13:41.819Z,3.72
2023-07-09T15:16:15.270Z,6.13
2023-07-09T15:18:48.611Z,4.35
2023-07-09T15:21:22.207Z,5.40
2023-07-09T15:23:56.876Z,2.08
2023-07-09T15:26:30.288Z,3.10
2023-07-09T15:29:04.001Z,3.00
2023-07-09T15:34:10.848Z,3.28
2023-07-09T15:36:47.036Z,2.65
2023-07-09T15:39:23.177Z,3.58
2023-07-09T15:41:56.601Z,5.63
2023-07-09T15:44:29.965Z,3.22
2023-07-09T15:47:05.226Z,8.23
2023-07-09T15:49:38.619Z,9.18
2023-07-09T15:52:12.181Z,6.78
2023-07-09T15:54:46.797Z,6.93
2023-07-09T15:57:36.649Z,5.55
2023-07-09T16:00:20.093Z,4.07
2023-07-09T16:03:04.643Z,9.48
2023-07-09T16:05:46.085Z,3.60
2023-07-09T16:08:19.435Z,12.27
2023-07-09T16:10:54.197Z,6.72
2023-07-09T16:13:29.067Z,7.38
2023-07-09T16:16:02.672Z,9.18
2023-07-09T16:21:20.952Z,6.72
2023-07-09T16:23:55.242Z,6.53
2023-07-09T16:26:30.143Z,7.90
2023-07-09T16:29:04.291Z,8.77
2023-07-09T16:31:37.625Z,8.05
2023-07-09T16:34:10.899Z,5.63
2023-07-09T16:36:44.188Z,3.67
2023-07-09T16:39:30.565Z,9.00
2023-07-09T16:42:12.315Z,5.85
2023-07-09T16:44:46.014Z,5.00
2023-07-09T16:47:21.748Z,5.97
2023-07-09T16:49:55.180Z,5.65
2023-07-09T16:52:28.615Z,5.10
2023-07-09T16:55:01.988Z,3.15
2023-07-09T16:57:36.890Z,6.82
2023-07-09T17:00:25.481Z,8.98
2023-07-09T17:03:01.903Z,7.57
2023-07-09T17:05:37.416Z,7.85
2023-07-09T17:08:11.448Z,8.10
2023-07-09T17:10:45.481Z,5.93
2023-07-09T17:13:23.724Z,5.03
2023-07-09T17:15:57.656Z,9.55
2023-07-09T17:21:05.821Z,10.55
2023-07-09T17:23:40.370Z,6.90
2023-07-09T17:26:13.652Z,3.85
2023-07-09T17:28:48.479Z,7.75
2023-07-09T17:31:22.017Z,8.63
2023-07-09T17:33:55.437Z,5.32
2023-07-09T17:36:28.877Z,14.32
2023-07-09T17:39:02.170Z,8.90
2023-07-09T17:41:35.536Z,15.70
2023-07-09T17:44:16.134Z,13.38
2023-07-09T17:46:51.332Z,10.88
2023-07-09T17:49:27.644Z,12.80
2023-07-09T17:52:01.891Z,10.73
2023-07-09T17:54:35.176Z,8.60
2023-07-09T17:57:09.762Z,9.32
2023-07-09T17:59:44.787Z,9.00
2023-07-09T18:02:22.861Z,9.32
2023-07-09T18:04:56.888Z,9.57
2023-07-09T18:07:32.185Z,14.02
2023-07-09T18:10:07.288Z,9.27
2023-07-09T18:12:41.349Z,7.32
2023-07-09T18:15:24.754Z,12.77
2023-07-09T18:17:58.310Z,6.95
2023-07-09T18:20:32.717Z,9.45
2023-07-09T18:23:06.097Z,7.60
2023-07-09T18:25:42.123Z,11.20
2023-07-09T18:28:21.509Z,11.88
2023-07-09T18:31:11.088Z,9.40
2023-07-09T18:33:50.106Z,6.47
2023-07-09T18:36:23.367Z,6.10
2023-07-09T18:38:56.769Z,5.60
2023-07-09T18:41:30.551Z,11.02
2023-07-09T18:44:11.723Z,6.97
2023-07-09T18:46:47.041Z,11.65
2023-07-09T18:49:20.668Z,9.25
2023-07-09T18:51:54.132Z,6.80
2023-07-09T18:54:27.690Z,8.70
2023-07-09T18:57:01.140Z,7.80
2023-07-09T18:59:35.306Z,8.85
2023-07-09T19:02:17.631Z,6.35
2023-07-09T19:04:53.409Z,13.02
2023-07-09T19:07:26.720Z,10.27
2023-07-09T19:10:01.190Z,6.35
2023-07-09T19:12:34.507Z,7.53
2023-07-09T19:15:08.668Z,10.77
2023-07-09T19:17:44.258Z,7.40
2023-07-09T19:20:20.218Z,9.77
2023-07-09T19:22:54.009Z,5.88
2023-07-09T19:28:01.523Z,6.82
2023-07-09T19:30:34.898Z,6.82
2023-07-09T19:33:18.497Z,5.95
2023-07-09T19:35:51.937Z,11.40
2023-07-09T19:38:25.397Z,5.63
2023-07-09T19:40:58.671Z,6.68
2023-07-09T19:43:31.958Z,5.72
2023-07-09T19:46:05.434Z,8.57
2023-07-09T19:51:13.763Z,7.82
2023-07-09T19:53:47.030Z,7.70
2023-07-09T19:56:20.482Z,9.05
2023-07-09T19:58:55.141Z,10.85
2023-07-09T20:01:29.852Z,11.43
2023-07-09T20:04:04.866Z,7.13
2023-07-09T20:06:39.212Z,9.55
2023-07-09T20:09:16.087Z,7.05
2023-07-09T20:11:52.745Z,6.72
2023-07-09T20:14:26.411Z,9.43
2023-07-09T20:16:59.719Z,11.55
2023-07-09T20:19:35.027Z,9.27
2023-07-09T20:22:12.502Z,13.05
2023-07-09T20:24:46.024Z,12.27
2023-07-09T20:27:20.247Z,13.43
2023-07-09T20:29:53.615Z,13.57
2023-07-09T20:32:27.476Z,19.77
2023-07-09T20:35:02.276Z,16.60
2023-07-09T20:37:35.633Z,12.52
2023-07-09T20:40:14.025Z,18.73
2023-07-09T20:42:48.478Z,15.60
2023-07-09T20:45:25.563Z,11.43
2023-07-09T20:47:59.039Z,14.25
2023-07-09T20:50:34.006Z,13.68
2023-07-09T20:53:07.545Z,16.08
2023-07-09T20:55:43.243Z,15.32
2023-07-09T20:58:18.251Z,11.43
2023-07-09T21:00:53.809Z,15.30
2023-07-09T21:03:28.450Z,14.35
2023-07-09T21:06:03.716Z,11.20
2023-07-09T21:08:37.304Z,15.40
2023-07-09T21:11:10.574Z,11.13
2023-07-09T21:13:43.875Z,17.27
2023-07-09T21:16:21.686Z,13.48
2023-07-09T21:18:55.129Z,11.30
2023-07-09T21:21:29.846Z,13.85
2023-07-09T21:24:03.249Z,16.27
2023-07-09T21:26:36.566Z,12.32
2023-07-09T21:29:09.792Z,11.30
2023-07-09T21:31:43.859Z,11.93
2023-07-09T21:34:18.614Z,9.70
2023-07-09T21:36:53.689Z,8.95
2023-07-09T21:39:29.081Z,10.07
2023-07-09T21:42:02.352Z,8.85
2023-07-09T21:44:35.910Z,10.70
2023-07-09T21:47:14.664Z,11.35
2023-07-09T21:49:48.160Z,7.80
2023-07-09T21:52:24.348Z,11.55
2023-07-09T21:57:33.993Z,14.45
2023-07-09T22:00:12.022Z,10.15
2023-07-09T22:02:52.397Z,8.90
2023-07-09T22:05:28.159Z,9.18
2023-07-09T22:08:02.970Z,7.72
2023-07-09T22:10:38.043Z,10.05
2023-07-09T22:13:13.072Z,13.10
2023-07-09T22:15:47.027Z,12.13
2023-07-09T22:18:21.783Z,9.80
2023-07-09T22:20:55.194Z,7.55
2023-07-09T22:23:30.587Z,8.32
2023-07-09T22:26:05.785Z,10.63
2023-07-09T22:28:39.417Z,9.00
2023-07-09T22:31:15.047Z,8.95
2023-07-09T22:33:48.466Z,7.15
2023-07-09T22:36:21.786Z,7.90
2023-07-09T22:38:56.532Z,9.57
2023-07-09T22:41:31.366Z,9.25
2023-07-09T22:44:04.818Z,9.40
2023-07-09T22:46:38.747Z,8.13
2023-07-09T22:49:15.741Z,9.57
2023-07-09T22:51:49.019Z,10.05
2023-07-09T22:54:24.632Z,8.38
2023-07-09T22:56:57.924Z,6.55
2023-07-09T22:59:31.223Z,7.78
2023-07-09T23:02:05.325Z,7.32
2023-07-09T23:04:38.796Z,8.73
2023-07-09T23:07:13.567Z,6.43
2023-07-09T23:09:48.321Z,7.43
2023-07-09T23:12:21.834Z,7.15
2023-07-09T23:14:55.131Z,9.15
2023-07-09T23:17:28.642Z,7.43
2023-07-09T23:20:02.067Z,7.40
2023-07-09T23:22:35.550Z,11.38
2023-07-09T23:25:12.686Z,7.75
2023-07-09T23:27:46.808Z,7.47
2023-07-09T23:30:24.646Z,7.68
2023-07-09T23:32:59.504Z,8.90
2023-07-09T23:35:32.971Z,7.18
2023-07-09T23:38:06.907Z,9.15
2023-07-09T23:40:41.696Z,8.43
2023-07-09T23:43:17.612Z,8.98
2023-07-09T23:45:51.205Z,9.30
2023-07-09T23:48:26.965Z,6.03
2023-07-09T23:51:02.488Z,8.13
2023-07-09T23:53:36.523Z,10.18
2023-07-09T23:56:16.407Z,6.80
2023-07-09T23:58:50.560Z,12.88
